< Typhoon 200611 2006 Season Typhoon 200613 >
Typhoon 200612 (IOKE)
General InformationTrack Information on Google MapsDetailed Wind InformationAccess Analytics MapList of All Images || NewsDisaster Info.WeblogTrackbackTyphoon FrontResourceGoogle EarthGE AnimationAtom FeedGeoJSON
Detalied Best Track (Time Zone = UTC)
Year Month Day Hour Lat. Long. Pressure (hPa) Wind (kt) Class Image Chart
2006 8 27 06 17.6 180.5 925 100 7 Image Chart
2006 8 27 12 17.2 179.5 925 100 5 Image Chart
2006 8 27 18 16.9 178.6 925 100 5 Image Chart
2006 8 28 00 16.6 177.6 925 100 5 Image Chart
2006 8 28 06 16.3 176.7 925 100 5 Image Chart
2006 8 28 12 16.1 175.9 925 100 5 Image Chart
2006 8 28 18 16.2 175.2 925 100 5 Image Chart
2006 8 29 00 16.1 174.3 925 100 5 Image Chart
2006 8 29 06 16.2 173.4 925 100 5 Image Chart
2006 8 29 12 16.2 172.6 925 100 5 Image Chart
2006 8 29 18 16.5 171.9 925 100 5 Image Chart
2006 8 30 00 16.6 171.3 920 105 5 Image Chart
2006 8 30 06 17.1 170.6 920 105 5 Image Chart
2006 8 30 12 17.4 169.9 920 105 5 Image Chart
2006 8 30 18 18.1 169.2 920 105 5 Image Chart
2006 8 31 00 18.7 168.3 920 105 5 Image Chart
2006 8 31 06 19.3 167.5 920 105 5 Image Chart
2006 8 31 12 19.7 166.4 925 100 5 Image Chart
2006 8 31 18 20.2 165.4 925 100 5 Image Chart
2006 9 1 00 20.7 164.5 925 100 5 Image Chart
2006 9 1 06 21.3 163.5 925 100 5 Image Chart
2006 9 1 12 21.8 162.4 930 100 5 Image Chart
2006 9 1 18 22.4 161.0 935 95 5 Image Chart
2006 9 2 00 23.0 159.3 940 95 5 Image Chart
2006 9 2 06 23.6 157.7 945 90 5 Image Chart
2006 9 2 12 24.0 156.3 945 85 5 Image Chart
2006 9 2 18 24.5 155.0 945 85 5 Image Chart
2006 9 3 00 25.1 153.6 945 85 5 Image Chart
2006 9 3 06 25.6 152.6 945 85 5 Image Chart
2006 9 3 12 26.6 151.8 950 85 5 Image Chart
2006 9 3 18 27.5 150.8 950 85 5 Image Chart
2006 9 4 00 28.7 150.2 955 80 5 Image Chart
2006 9 4 06 29.7 149.0 955 80 5 Image Chart
2006 9 4 12 30.8 148.0 960 75 5 Image Chart
2006 9 4 18 32.4 147.5 960 70 5 Image Chart
2006 9 5 00 34.1 147.2 965 65 5 Image Chart
2006 9 5 06 35.7 147.5 965 65 5 Image Chart
2006 9 5 12 37.4 149.1 965 65 5 Image Chart
2006 9 5 18 40.0 150.9 970 65 5 Image Chart
2006 9 6 00 42.2 153.1 975 60 4 Image Chart
2006 9 6 06 44.9 156.7 980 55 4 Image Chart
2006 9 6 12 47.6 161.2 980 55 4 Image Chart
2006 9 6 18 51.9 166.2 982 0 6 Image Chart
2006 9 7 00 54.1 169.7 976 0 6 Image Chart
2006 9 7 06 55.4 176.2 974 0 6 Image Chart
2006 9 7 12 55.8 181.0 970 0 6 Image Chart
Japan Meteorological Agency Best Track Data | Correction Date : 2006-11-14
< Typhoon 200611 2006 Season Typhoon 200613 >

Help